Back to Top

Language: 

My Weather Underground Personal Weather Station Historical Data with Graphs...

Delerius Weather Station Historical Data
 
Daily Summary for November 15, 2018 Units:  Both    English   Metric
« Previous Day
Next Day »
Daily Weekly Monthly Yearly Custom
  Current: High: Low: Average:
Temperature: 54.1 °F /  12.3 °C 54.1 °F /  12.3 °C 45.0 °F /  7.2 °C 47 °F /  8.3 °C
Dew Point: 49.4 °F /  9.7 °C 49.7 °F /  9.8 °C 41.9 °F /  5.5 °C 44.3 °F /  6.8 °C
Humidity: 84 % 94 % 84 % 90 %
Wind Speed: 7.0 mph /  11.3 km/h 9.0 mph /  14.5 km/h - 3.3 mph /  5.3 km/h
Wind Gust: 11.0 mph /  17.7 km/h 14.0 mph /  22.5 km/h - -
Wind:SSE - - SSE
Pressure: 30.08 in /  1018.5 hPa 30.10 in /  1019.2 hPa 30.07 in /  1018.2 hPa -
Precipitation: 0.00 in /  0 mm      
Historical Graphs
 
 
Tabular Data for November 15, 2018
Time Temperature Dew Point Pressure Wind Wind Speed Wind Gust Humidity Rainfall Rate (Hourly) solar Conditions
00:05 47.3 °F /  8.5 °C 43.3 °F /  6.3 °C 30.07 in /  1018.2 hPa SSE 3.0 mph /  4.8 km/h 6.0 mph /  9.7 km/h 86 % 0.00 in /  0 mm 0.00 W/m2
00:10 47.1 °F /  8.4 °C 43.4 °F /  6.3 °C 30.08 in /  1018.5 hPa SSE 4.0 mph /  6.4 km/h 7.0 mph /  11.3 km/h 87 % 0.00 in /  0 mm 0.00 W/m2
00:15 46.9 °F /  8.3 °C 43.3 °F /  6.3 °C 30.08 in /  1018.5 hPa South 3.0 mph /  4.8 km/h 7.0 mph /  11.3 km/h 87 % 0.00 in /  0 mm 0.00 W/m2
00:20 47.1 °F /  8.4 °C 43.7 °F /  6.5 °C 30.07 in /  1018.2 hPa South 5.0 mph /  8 km/h 8.0 mph /  12.9 km/h 88 % 0.00 in /  0 mm 0.00 W/m2
00:24 47.1 °F /  8.4 °C 43.7 °F /  6.5 °C 30.07 in /  1018.2 hPa South 5.0 mph /  8 km/h 9.0 mph /  14.5 km/h 88 % 0.00 in /  0 mm 0.00 W/m2
00:29 47.5 °F /  8.6 °C 44.1 °F /  6.7 °C 30.08 in /  1018.5 hPa SSW 6.0 mph /  9.7 km/h 13.0 mph /  20.9 km/h 88 % 0.00 in /  0 mm 0.00 W/m2
00:35 47.7 °F /  8.7 °C 44.3 °F /  6.8 °C 30.07 in /  1018.2 hPa SSW 8.0 mph /  12.9 km/h 11.0 mph /  17.7 km/h 88 % 0.00 in /  0 mm 0.00 W/m2
00:39 47.8 °F /  8.8 °C 44.2 °F /  6.8 °C 30.07 in /  1018.2 hPa SSW 7.0 mph /  11.3 km/h 10.0 mph /  16.1 km/h 87 % 0.00 in /  0 mm 0.00 W/m2
00:45 47.7 °F /  8.7 °C 44.0 °F /  6.7 °C 30.07 in /  1018.2 hPa South 5.0 mph /  8 km/h 10.0 mph /  16.1 km/h 87 % 0.00 in /  0 mm 0.00 W/m2
00:49 47.7 °F /  8.7 °C 44.0 °F /  6.7 °C 30.07 in /  1018.2 hPa South 6.0 mph /  9.7 km/h 8.0 mph /  12.9 km/h 87 % 0.00 in /  0 mm 0.00 W/m2
00:54 47.5 °F /  8.6 °C 43.8 °F /  6.6 °C 30.07 in /  1018.2 hPa South 4.0 mph /  6.4 km/h 11.0 mph /  17.7 km/h 87 % 0.00 in /  0 mm 0.00 W/m2
00:59 47.5 °F /  8.6 °C 43.8 °F /  6.6 °C 30.07 in /  1018.2 hPa South 1.0 mph /  1.6 km/h 5.0 mph /  8 km/h 87 % 0.00 in /  0 mm 0.00 W/m2
01:04 47.1 °F /  8.4 °C 43.4 °F /  6.3 °C 30.07 in /  1018.2 hPa SW 1.0 mph /  1.6 km/h 5.0 mph /  8 km/h 87 % 0.00 in /  0 mm 0.00 W/m2
01:09 46.9 °F /  8.3 °C 43.3 °F /  6.3 °C 30.07 in /  1018.2 hPa Calm     87 % 0.00 in /  0 mm 0.00 W/m2
01:14 46.6 °F /  8.1 °C 42.6 °F /  5.9 °C 30.07 in /  1018.2 hPa Calm     86 % 0.00 in /  0 mm 0.00 W/m2
01:19 46.2 °F /  7.9 °C 42.6 °F /  5.9 °C 30.08 in /  1018.5 hPa Calm     87 % 0.00 in /  0 mm 0.00 W/m2
01:24 45.9 °F /  7.7 °C 42.2 °F /  5.7 °C 30.08 in /  1018.5 hPa Calm     87 % 0.00 in /  0 mm 0.00 W/m2
01:29 45.5 °F /  7.5 °C 41.9 °F /  5.5 °C 30.08 in /  1018.5 hPa Calm   2.0 mph /  3.2 km/h 87 % 0.00 in /  0 mm 0.00 W/m2
01:34 45.3 °F /  7.4 °C 42.0 °F /  5.6 °C 30.08 in /  1018.5 hPa Calm   2.0 mph /  3.2 km/h 88 % 0.00 in /  0 mm 0.00 W/m2
01:39 45.3 °F /  7.4 °C 42.3 °F /  5.7 °C 30.08 in /  1018.5 hPa ESE 3.0 mph /  4.8 km/h 5.0 mph /  8 km/h 89 % 0.00 in /  0 mm 0.00 W/m2
01:44 45.3 °F /  7.4 °C 42.3 °F /  5.7 °C 30.07 in /  1018.2 hPa Calm   1.0 mph /  1.6 km/h 89 % 0.00 in /  0 mm 0.00 W/m2
01:49 45.1 °F /  7.3 °C 42.1 °F /  5.6 °C 30.07 in /  1018.2 hPa South 1.0 mph /  1.6 km/h 4.0 mph /  6.4 km/h 89 % 0.00 in /  0 mm 0.00 W/m2
01:54 45.1 °F /  7.3 °C 42.4 °F /  5.8 °C 30.07 in /  1018.2 hPa Calm     90 % 0.00 in /  0 mm 0.00 W/m2
01:59 45.1 °F /  7.3 °C 42.4 °F /  5.8 °C 30.07 in /  1018.2 hPa Calm     90 % 0.00 in /  0 mm 0.00 W/m2
02:04 45.3 °F /  7.4 °C 42.6 °F /  5.9 °C 30.07 in /  1018.2 hPa SE 3.0 mph /  4.8 km/h 5.0 mph /  8 km/h 90 % 0.00 in /  0 mm 0.00 W/m2
02:09 45.3 °F /  7.4 °C 42.6 °F /  5.9 °C 30.07 in /  1018.2 hPa Calm   4.0 mph /  6.4 km/h 90 % 0.00 in /  0 mm 0.00 W/m2
02:14 45.3 °F /  7.4 °C 42.6 °F /  5.9 °C 30.07 in /  1018.2 hPa SSE 4.0 mph /  6.4 km/h 7.0 mph /  11.3 km/h 90 % 0.00 in /  0 mm 0.00 W/m2
02:19 45.3 °F /  7.4 °C 42.8 °F /  6 °C 30.08 in /  1018.5 hPa SSE 3.0 mph /  4.8 km/h 5.0 mph /  8 km/h 91 % 0.00 in /  0 mm 0.00 W/m2
02:24 45.7 °F /  7.6 °C 43.2 °F /  6.2 °C 30.07 in /  1018.2 hPa SE 6.0 mph /  9.7 km/h 8.0 mph /  12.9 km/h 91 % 0.00 in /  0 mm 0.00 W/m2
02:29 46.0 °F /  7.8 °C 43.6 °F /  6.4 °C 30.07 in /  1018.2 hPa SE 6.0 mph /  9.7 km/h 8.0 mph /  12.9 km/h 91 % 0.00 in /  0 mm 0.00 W/m2
02:34 46.2 °F /  7.9 °C 43.7 °F /  6.5 °C 30.07 in /  1018.2 hPa SE 6.0 mph /  9.7 km/h 10.0 mph /  16.1 km/h 91 % 0.00 in /  0 mm 0.00 W/m2
02:39 46.2 °F /  7.9 °C 43.4 °F /  6.3 °C 30.07 in /  1018.2 hPa SSE 6.0 mph /  9.7 km/h 10.0 mph /  16.1 km/h 90 % 0.00 in /  0 mm 0.00 W/m2
02:44 46.4 °F /  8 °C 43.6 °F /  6.4 °C 30.08 in /  1018.5 hPa SSE 7.0 mph /  11.3 km/h 10.0 mph /  16.1 km/h 90 % 0.00 in /  0 mm 0.00 W/m2
02:49 46.6 °F /  8.1 °C 43.8 °F /  6.6 °C 30.08 in /  1018.5 hPa SSE 3.0 mph /  4.8 km/h 6.0 mph /  9.7 km/h 90 % 0.00 in /  0 mm 0.00 W/m2
02:54 46.6 °F /  8.1 °C 43.8 °F /  6.6 °C 30.07 in /  1018.2 hPa SE 3.0 mph /  4.8 km/h 6.0 mph /  9.7 km/h 90 % 0.00 in /  0 mm 0.00 W/m2
02:59 46.6 °F /  8.1 °C 43.8 °F /  6.6 °C 30.08 in /  1018.5 hPa ESE 3.0 mph /  4.8 km/h 6.0 mph /  9.7 km/h 90 % 0.00 in /  0 mm 0.00 W/m2
03:04 46.2 °F /  7.9 °C 43.2 °F /  6.2 °C 30.08 in /  1018.5 hPa SE 1.0 mph /  1.6 km/h 6.0 mph /  9.7 km/h 89 % 0.00 in /  0 mm 0.00 W/m2
03:09 46.0 °F /  7.8 °C 43.0 °F /  6.1 °C 30.08 in /  1018.5 hPa ESE 6.0 mph /  9.7 km/h 8.0 mph /  12.9 km/h 89 % 0.00 in /  0 mm 0.00 W/m2
03:14 46.0 °F /  7.8 °C 43.3 °F /  6.3 °C 30.08 in /  1018.5 hPa SE 4.0 mph /  6.4 km/h 7.0 mph /  11.3 km/h 90 % 0.00 in /  0 mm 0.00 W/m2
03:19 46.0 °F /  7.8 °C 43.3 °F /  6.3 °C 30.07 in /  1018.2 hPa ESE 4.0 mph /  6.4 km/h 7.0 mph /  11.3 km/h 90 % 0.00 in /  0 mm 0.00 W/m2
03:24 46.0 °F /  7.8 °C 43.3 °F /  6.3 °C 30.07 in /  1018.2 hPa SE 4.0 mph /  6.4 km/h 7.0 mph /  11.3 km/h 90 % 0.00 in /  0 mm 0.00 W/m2
03:29 46.0 °F /  7.8 °C 43.6 °F /  6.4 °C 30.07 in /  1018.2 hPa ESE 2.0 mph /  3.2 km/h 9.0 mph /  14.5 km/h 91 % 0.00 in /  0 mm 0.00 W/m2
03:34 46.2 °F /  7.9 °C 43.4 °F /  6.3 °C 30.07 in /  1018.2 hPa NE 2.0 mph /  3.2 km/h 4.0 mph /  6.4 km/h 90 % 0.00 in /  0 mm 0.00 W/m2
03:39 46.0 °F /  7.8 °C 43.3 °F /  6.3 °C 30.07 in /  1018.2 hPa Calm   2.0 mph /  3.2 km/h 90 % 0.00 in /  0 mm 0.00 W/m2
03:44 46.0 °F /  7.8 °C 43.3 °F /  6.3 °C 30.07 in /  1018.2 hPa East 1.0 mph /  1.6 km/h 5.0 mph /  8 km/h 90 % 0.00 in /  0 mm 0.00 W/m2
03:49 46.0 °F /  7.8 °C 43.6 °F /  6.4 °C 30.07 in /  1018.2 hPa East 2.0 mph /  3.2 km/h 10.0 mph /  16.1 km/h 91 % 0.00 in /  0 mm 0.00 W/m2
03:54 46.4 °F /  8 °C 43.9 °F /  6.6 °C 30.07 in /  1018.2 hPa WSW 4.0 mph /  6.4 km/h 6.0 mph /  9.7 km/h 91 % 0.00 in /  0 mm 0.00 W/m2
03:59 46.2 °F /  7.9 °C 43.4 °F /  6.3 °C 30.07 in /  1018.2 hPa ESE 3.0 mph /  4.8 km/h 8.0 mph /  12.9 km/h 90 % 0.00 in /  0 mm 0.00 W/m2
04:04 46.2 °F /  7.9 °C 43.4 °F /  6.3 °C 30.07 in /  1018.2 hPa South 1.0 mph /  1.6 km/h 4.0 mph /  6.4 km/h 90 % 0.00 in /  0 mm 0.00 W/m2
04:09 46.0 °F /  7.8 °C 43.3 °F /  6.3 °C 30.07 in /  1018.2 hPa SSW 1.0 mph /  1.6 km/h 2.0 mph /  3.2 km/h 90 % 0.00 in /  0 mm 0.00 W/m2
04:14 45.9 °F /  7.7 °C 43.1 °F /  6.2 °C 30.07 in /  1018.2 hPa West 1.0 mph /  1.6 km/h 4.0 mph /  6.4 km/h 90 % 0.00 in /  0 mm 0.00 W/m2
04:19 45.9 °F /  7.7 °C 43.4 °F /  6.3 °C 30.07 in /  1018.2 hPa SSW 3.0 mph /  4.8 km/h 9.0 mph /  14.5 km/h 91 % 0.00 in /  0 mm 0.00 W/m2
04:24 45.5 °F /  7.5 °C 42.7 °F /  5.9 °C 30.07 in /  1018.2 hPa SSE 4.0 mph /  6.4 km/h 7.0 mph /  11.3 km/h 90 % 0.00 in /  0 mm 0.00 W/m2
04:29 45.7 °F /  7.6 °C 43.2 °F /  6.2 °C 30.07 in /  1018.2 hPa SSW 4.0 mph /  6.4 km/h 6.0 mph /  9.7 km/h 91 % 0.00 in /  0 mm 0.00 W/m2
04:34 45.7 °F /  7.6 °C 43.2 °F /  6.2 °C 30.07 in /  1018.2 hPa SSW 1.0 mph /  1.6 km/h 4.0 mph /  6.4 km/h 91 % 0.00 in /  0 mm 0.00 W/m2
04:39 45.7 °F /  7.6 °C 43.2 °F /  6.2 °C 30.07 in /  1018.2 hPa Calm   4.0 mph /  6.4 km/h 91 % 0.00 in /  0 mm 0.00 W/m2
04:45 45.7 °F /  7.6 °C 42.9 °F /  6.1 °C 30.07 in /  1018.2 hPa WSW 2.0 mph /  3.2 km/h 5.0 mph /  8 km/h 90 % 0.00 in /  0 mm 0.00 W/m2
04:49 45.7 °F /  7.6 °C 43.2 °F /  6.2 °C 30.07 in /  1018.2 hPa WSW 3.0 mph /  4.8 km/h 6.0 mph /  9.7 km/h 91 % 0.00 in /  0 mm 0.00 W/m2
04:55 45.7 °F /  7.6 °C 43.2 °F /  6.2 °C 30.07 in /  1018.2 hPa Calm   2.0 mph /  3.2 km/h 91 % 0.00 in /  0 mm 0.00 W/m2
04:59 45.7 °F /  7.6 °C 43.2 °F /  6.2 °C 30.07 in /  1018.2 hPa WSW 1.0 mph /  1.6 km/h 2.0 mph /  3.2 km/h 91 % 0.00 in /  0 mm 0.00 W/m2
05:04 45.7 °F /  7.6 °C 43.5 °F /  6.4 °C 30.07 in /  1018.2 hPa ESE 4.0 mph /  6.4 km/h 9.0 mph /  14.5 km/h 92 % 0.00 in /  0 mm 0.00 W/m2
05:09 45.3 °F /  7.4 °C 42.6 °F /  5.9 °C 30.07 in /  1018.2 hPa SE 1.0 mph /  1.6 km/h 5.0 mph /  8 km/h 90 % 0.00 in /  0 mm 0.00 W/m2
05:14 45.1 °F /  7.3 °C 42.7 °F /  5.9 °C 30.07 in /  1018.2 hPa East 4.0 mph /  6.4 km/h 6.0 mph /  9.7 km/h 91 % 0.00 in /  0 mm 0.00 W/m2
05:19 45.1 °F /  7.3 °C 42.7 °F /  5.9 °C 30.07 in /  1018.2 hPa ESE 2.0 mph /  3.2 km/h 6.0 mph /  9.7 km/h 91 % 0.00 in /  0 mm 0.00 W/m2
05:24 45.1 °F /  7.3 °C 42.7 °F /  5.9 °C 30.07 in /  1018.2 hPa ESE 4.0 mph /  6.4 km/h 7.0 mph /  11.3 km/h 91 % 0.00 in /  0 mm 0.00 W/m2
05:29 45.1 °F /  7.3 °C 43.0 °F /  6.1 °C 30.07 in /  1018.2 hPa ESE 5.0 mph /  8 km/h 8.0 mph /  12.9 km/h 92 % 0.00 in /  0 mm 0.00 W/m2
05:35 45.3 °F /  7.4 °C 43.1 °F /  6.2 °C 30.07 in /  1018.2 hPa SE 4.0 mph /  6.4 km/h 8.0 mph /  12.9 km/h 92 % 0.00 in /  0 mm 0.00 W/m2
05:39 45.5 °F /  7.5 °C 43.3 °F /  6.3 °C 30.07 in /  1018.2 hPa SSE 2.0 mph /  3.2 km/h 5.0 mph /  8 km/h 92 % 0.00 in /  0 mm 0.00 W/m2
05:45 45.5 °F /  7.5 °C 43.3 °F /  6.3 °C 30.08 in /  1018.5 hPa SW 2.0 mph /  3.2 km/h 9.0 mph /  14.5 km/h 92 % 0.00 in /  0 mm 0.00 W/m2
05:49 45.9 °F /  7.7 °C 43.7 °F /  6.5 °C 30.08 in /  1018.5 hPa SW 4.0 mph /  6.4 km/h 6.0 mph /  9.7 km/h 92 % 0.00 in /  0 mm 0.00 W/m2
05:54 46.0 °F /  7.8 °C 43.8 °F /  6.6 °C 30.07 in /  1018.2 hPa SSW 2.0 mph /  3.2 km/h 8.0 mph /  12.9 km/h 92 % 0.00 in /  0 mm 0.00 W/m2
05:59 46.0 °F /  7.8 °C 43.6 °F /  6.4 °C 30.08 in /  1018.5 hPa Calm   3.0 mph /  4.8 km/h 91 % 0.00 in /  0 mm 0.00 W/m2
06:04 45.9 °F /  7.7 °C 43.4 °F /  6.3 °C 30.08 in /  1018.5 hPa SSW 1.0 mph /  1.6 km/h 4.0 mph /  6.4 km/h 91 % 0.00 in /  0 mm 0.00 W/m2
06:09 45.9 °F /  7.7 °C 43.4 °F /  6.3 °C 30.08 in /  1018.5 hPa NW 1.0 mph /  1.6 km/h 4.0 mph /  6.4 km/h 91 % 0.00 in /  0 mm 0.00 W/m2
06:14 45.7 °F /  7.6 °C 43.2 °F /  6.2 °C 30.08 in /  1018.5 hPa NE 1.0 mph /  1.6 km/h 4.0 mph /  6.4 km/h 91 % 0.00 in /  0 mm 0.00 W/m2
06:19 45.7 °F /  7.6 °C 43.2 °F /  6.2 °C 30.08 in /  1018.5 hPa WNW 2.0 mph /  3.2 km/h 6.0 mph /  9.7 km/h 91 % 0.00 in /  0 mm 0.00 W/m2
06:24 45.9 °F /  7.7 °C 43.7 °F /  6.5 °C 30.08 in /  1018.5 hPa West 1.0 mph /  1.6 km/h 3.0 mph /  4.8 km/h 92 % 0.00 in /  0 mm 0.00 W/m2
06:29 45.9 °F /  7.7 °C 43.7 °F /  6.5 °C 30.08 in /  1018.5 hPa NW 1.0 mph /  1.6 km/h 3.0 mph /  4.8 km/h 92 % 0.00 in /  0 mm 0.00 W/m2
06:34 45.7 °F /  7.6 °C 43.2 °F /  6.2 °C 30.08 in /  1018.5 hPa Calm   1.0 mph /  1.6 km/h 91 % 0.00 in /  0 mm 0.00 W/m2
06:39 45.3 °F /  7.4 °C 42.8 °F /  6 °C 30.08 in /  1018.5 hPa Calm   4.0 mph /  6.4 km/h 91 % 0.00 in /  0 mm 0.00 W/m2
06:44 45.0 °F /  7.2 °C 42.5 °F /  5.8 °C 30.08 in /  1018.5 hPa East 1.0 mph /  1.6 km/h 3.0 mph /  4.8 km/h 91 % 0.00 in /  0 mm 0.00 W/m2
06:49 45.0 °F /  7.2 °C 42.8 °F /  6 °C 30.08 in /  1018.5 hPa East 3.0 mph /  4.8 km/h 6.0 mph /  9.7 km/h 92 % 0.00 in /  0 mm 0.00 W/m2
06:54 45.0 °F /  7.2 °C 42.8 °F /  6 °C 30.08 in /  1018.5 hPa East 2.0 mph /  3.2 km/h 4.0 mph /  6.4 km/h 92 % 0.00 in /  0 mm 0.00 W/m2
06:59 45.0 °F /  7.2 °C 42.8 °F /  6 °C 30.08 in /  1018.5 hPa ESE 3.0 mph /  4.8 km/h 6.0 mph /  9.7 km/h 92 % 0.00 in /  0 mm 0.00 W/m2
07:05 45.0 °F /  7.2 °C 43.1 °F /  6.2 °C 30.08 in /  1018.5 hPa ESE 2.0 mph /  3.2 km/h 5.0 mph /  8 km/h 93 % 0.00 in /  0 mm 0.00 W/m2
07:10 45.1 °F /  7.3 °C 43.2 °F /  6.2 °C 30.09 in /  1018.8 hPa ESE 4.0 mph /  6.4 km/h 7.0 mph /  11.3 km/h 93 % 0.00 in /  0 mm 0.00 W/m2
07:15 45.3 °F /  7.4 °C 43.4 °F /  6.3 °C 30.08 in /  1018.5 hPa ESE 4.0 mph /  6.4 km/h 7.0 mph /  11.3 km/h 93 % 0.00 in /  0 mm 0.00 W/m2
07:19 45.7 °F /  7.6 °C 43.8 °F /  6.6 °C 30.09 in /  1018.8 hPa SE 2.0 mph /  3.2 km/h 5.0 mph /  8 km/h 93 % 0.00 in /  0 mm 0.00 W/m2
07:25 45.5 °F /  7.5 °C 43.6 °F /  6.4 °C 30.09 in /  1018.8 hPa ESE 3.0 mph /  4.8 km/h 5.0 mph /  8 km/h 93 % 0.00 in /  0 mm 0.00 W/m2
07:29 45.3 °F /  7.4 °C 43.4 °F /  6.3 °C 30.09 in /  1018.8 hPa East 3.0 mph /  4.8 km/h 6.0 mph /  9.7 km/h 93 % 0.00 in /  0 mm 5.00 W/m2
07:34 45.5 °F /  7.5 °C 43.6 °F /  6.4 °C 30.09 in /  1018.8 hPa ESE 3.0 mph /  4.8 km/h 7.0 mph /  11.3 km/h 93 % 0.00 in /  0 mm 7.00 W/m2
07:39 45.7 °F /  7.6 °C 43.8 °F /  6.6 °C 30.09 in /  1018.8 hPa NNW 1.0 mph /  1.6 km/h 6.0 mph /  9.7 km/h 93 % 0.00 in /  0 mm 9.00 W/m2
07:44 45.9 °F /  7.7 °C 44.0 °F /  6.7 °C 30.09 in /  1018.8 hPa ESE 1.0 mph /  1.6 km/h 5.0 mph /  8 km/h 93 % 0.00 in /  0 mm 11.00 W/m2
07:49 45.9 °F /  7.7 °C 44.0 °F /  6.7 °C 30.09 in /  1018.8 hPa Calm   2.0 mph /  3.2 km/h 93 % 0.00 in /  0 mm 14.00 W/m2
07:54 45.9 °F /  7.7 °C 43.7 °F /  6.5 °C 30.09 in /  1018.8 hPa Calm   2.0 mph /  3.2 km/h 92 % 0.00 in /  0 mm 18.00 W/m2
07:59 45.7 °F /  7.6 °C 43.5 °F /  6.4 °C 30.09 in /  1018.8 hPa ENE 1.0 mph /  1.6 km/h 5.0 mph /  8 km/h 92 % 0.00 in /  0 mm 19.00 W/m2
08:04 45.5 °F /  7.5 °C 43.3 °F /  6.3 °C 30.09 in /  1018.8 hPa ENE 4.0 mph /  6.4 km/h 6.0 mph /  9.7 km/h 92 % 0.00 in /  0 mm 21.00 W/m2
08:10 45.3 °F /  7.4 °C 43.1 °F /  6.2 °C 30.09 in /  1018.8 hPa ENE 4.0 mph /  6.4 km/h 6.0 mph /  9.7 km/h 92 % 0.00 in /  0 mm 25.00 W/m2
08:14 45.3 °F /  7.4 °C 43.4 °F /  6.3 °C 30.09 in /  1018.8 hPa ENE 2.0 mph /  3.2 km/h 5.0 mph /  8 km/h 93 % 0.00 in /  0 mm 26.00 W/m2
08:19 45.5 °F /  7.5 °C 43.6 °F /  6.4 °C 30.09 in /  1018.8 hPa East 2.0 mph /  3.2 km/h 5.0 mph /  8 km/h 93 % 0.00 in /  0 mm 28.00 W/m2
08:25 45.7 °F /  7.6 °C 43.8 °F /  6.6 °C 30.09 in /  1018.8 hPa East 4.0 mph /  6.4 km/h 6.0 mph /  9.7 km/h 93 % 0.00 in /  0 mm 30.00 W/m2
08:29 45.9 °F /  7.7 °C 44.0 °F /  6.7 °C 30.09 in /  1018.8 hPa East 4.0 mph /  6.4 km/h 6.0 mph /  9.7 km/h 93 % 0.00 in /  0 mm 32.00 W/m2
08:34 45.9 °F /  7.7 °C 44.0 °F /  6.7 °C 30.09 in /  1018.8 hPa ESE 5.0 mph /  8 km/h 6.0 mph /  9.7 km/h 93 % 0.00 in /  0 mm 33.00 W/m2
08:39 45.9 °F /  7.7 °C 44.0 °F /  6.7 °C 30.09 in /  1018.8 hPa SE 6.0 mph /  9.7 km/h 8.0 mph /  12.9 km/h 93 % 0.00 in /  0 mm 35.00 W/m2
08:44 45.9 °F /  7.7 °C 44.0 °F /  6.7 °C 30.09 in /  1018.8 hPa ESE 6.0 mph /  9.7 km/h 8.0 mph /  12.9 km/h 93 % 0.00 in /  0 mm 37.00 W/m2
08:49 46.0 °F /  7.8 °C 44.1 °F /  6.7 °C 30.09 in /  1018.8 hPa SE 5.0 mph /  8 km/h 8.0 mph /  12.9 km/h 93 % 0.00 in /  0 mm 39.00 W/m2
08:54 46.2 °F /  7.9 °C 44.3 °F /  6.8 °C 30.09 in /  1018.8 hPa SSE 3.0 mph /  4.8 km/h 7.0 mph /  11.3 km/h 93 % 0.00 in /  0 mm 40.00 W/m2
08:59 46.6 °F /  8.1 °C 44.9 °F /  7.2 °C 30.09 in /  1018.8 hPa SE 6.0 mph /  9.7 km/h 10.0 mph /  16.1 km/h 94 % 0.00 in /  0 mm 44.00 W/m2
09:04 46.9 °F /  8.3 °C 45.0 °F /  7.2 °C 30.09 in /  1018.8 hPa SE 6.0 mph /  9.7 km/h 8.0 mph /  12.9 km/h 93 % 0.00 in /  0 mm 135.00 W/m2
09:09 47.5 °F /  8.6 °C 45.8 °F /  7.7 °C 30.09 in /  1018.8 hPa SE 5.0 mph /  8 km/h 7.0 mph /  11.3 km/h 94 % 0.00 in /  0 mm 148.00 W/m2
09:14 48.0 °F /  8.9 °C 46.1 °F /  7.8 °C 30.09 in /  1018.8 hPa SE 5.0 mph /  8 km/h 7.0 mph /  11.3 km/h 93 % 0.00 in /  0 mm 156.00 W/m2
09:19 48.6 °F /  9.2 °C 46.6 °F /  8.1 °C 30.09 in /  1018.8 hPa SE 6.0 mph /  9.7 km/h 8.0 mph /  12.9 km/h 93 % 0.00 in /  0 mm 165.00 W/m2
09:24 48.9 °F /  9.4 °C 47.0 °F /  8.3 °C 30.09 in /  1018.8 hPa SE 4.0 mph /  6.4 km/h 7.0 mph /  11.3 km/h 93 % 0.00 in /  0 mm 174.00 W/m2
09:29 49.5 °F /  9.7 °C 47.2 °F /  8.4 °C 30.10 in /  1019.2 hPa SE 6.0 mph /  9.7 km/h 9.0 mph /  14.5 km/h 92 % 0.00 in /  0 mm 181.00 W/m2
09:34 49.8 °F /  9.9 °C 47.3 °F /  8.5 °C 30.10 in /  1019.2 hPa SSE 5.0 mph /  8 km/h 6.0 mph /  9.7 km/h 91 % 0.00 in /  0 mm 186.00 W/m2
09:39 50.4 °F /  10.2 °C 47.8 °F /  8.8 °C 30.10 in /  1019.2 hPa SE 5.0 mph /  8 km/h 9.0 mph /  14.5 km/h 91 % 0.00 in /  0 mm 195.00 W/m2
09:44 50.7 °F /  10.4 °C 47.9 °F /  8.8 °C 30.09 in /  1018.8 hPa SSE 4.0 mph /  6.4 km/h 6.0 mph /  9.7 km/h 90 % 0.00 in /  0 mm 207.00 W/m2
09:49 51.1 °F /  10.6 °C 48.0 °F /  8.9 °C 30.09 in /  1018.8 hPa South 5.0 mph /  8 km/h 7.0 mph /  11.3 km/h 89 % 0.00 in /  0 mm 209.00 W/m2
09:54 51.4 °F /  10.8 °C 48.3 °F /  9.1 °C 30.09 in /  1018.8 hPa South 4.0 mph /  6.4 km/h 6.0 mph /  9.7 km/h 89 % 0.00 in /  0 mm 223.00 W/m2
09:59 51.6 °F /  10.9 °C 48.2 °F /  9 °C 30.09 in /  1018.8 hPa SSE 4.0 mph /  6.4 km/h 9.0 mph /  14.5 km/h 88 % 0.00 in /  0 mm 229.00 W/m2
10:04 51.8 °F /  11 °C 48.4 °F /  9.1 °C 30.09 in /  1018.8 hPa South 3.0 mph /  4.8 km/h 6.0 mph /  9.7 km/h 88 % 0.00 in /  0 mm 232.00 W/m2
10:09 52.0 °F /  11.1 °C 48.2 °F /  9 °C 30.09 in /  1018.8 hPa South 5.0 mph /  8 km/h 9.0 mph /  14.5 km/h 87 % 0.00 in /  0 mm 237.00 W/m2
10:14 52.2 °F /  11.2 °C 48.4 °F /  9.1 °C 30.09 in /  1018.8 hPa SE 5.0 mph /  8 km/h 8.0 mph /  12.9 km/h 87 % 0.00 in /  0 mm 241.00 W/m2
10:19 52.5 °F /  11.4 °C 48.8 °F /  9.3 °C 30.09 in /  1018.8 hPa South 5.0 mph /  8 km/h 9.0 mph /  14.5 km/h 87 % 0.00 in /  0 mm 241.00 W/m2
10:24 52.5 °F /  11.4 °C 48.5 °F /  9.2 °C 30.08 in /  1018.5 hPa SE 9.0 mph /  14.5 km/h 14.0 mph /  22.5 km/h 86 % 0.00 in /  0 mm 244.00 W/m2
10:29 52.7 °F /  11.5 °C 48.6 °F /  9.2 °C 30.08 in /  1018.5 hPa SSE 7.0 mph /  11.3 km/h 10.0 mph /  16.1 km/h 86 % 0.00 in /  0 mm 248.00 W/m2
10:34 52.9 °F /  11.6 °C 48.8 °F /  9.3 °C 30.09 in /  1018.8 hPa SSE 7.0 mph /  11.3 km/h 11.0 mph /  17.7 km/h 86 % 0.00 in /  0 mm 246.00 W/m2
10:39 53.1 °F /  11.7 °C 49.0 °F /  9.4 °C 30.08 in /  1018.5 hPa SSE 7.0 mph /  11.3 km/h 10.0 mph /  16.1 km/h 86 % 0.00 in /  0 mm 301.00 W/m2
10:44 53.4 °F /  11.9 °C 49.3 °F /  9.6 °C 30.08 in /  1018.5 hPa South 7.0 mph /  11.3 km/h 11.0 mph /  17.7 km/h 86 % 0.00 in /  0 mm 292.00 W/m2
10:49 53.8 °F /  12.1 °C 49.4 °F /  9.7 °C 30.08 in /  1018.5 hPa SSE 9.0 mph /  14.5 km/h 13.0 mph /  20.9 km/h 85 % 0.00 in /  0 mm 304.00 W/m2
10:54 54.0 °F /  12.2 °C 49.6 °F /  9.8 °C 30.08 in /  1018.5 hPa SSE 7.0 mph /  11.3 km/h 11.0 mph /  17.7 km/h 85 % 0.00 in /  0 mm 313.00 W/m2
10:59 54.1 °F /  12.3 °C 49.7 °F /  9.8 °C 30.09 in /  1018.8 hPa SSE 9.0 mph /  14.5 km/h 14.0 mph /  22.5 km/h 85 % 0.00 in /  0 mm 318.00 W/m2
11:04 54.1 °F /  12.3 °C 49.4 °F /  9.7 °C 30.08 in /  1018.5 hPa South 6.0 mph /  9.7 km/h 13.0 mph /  20.9 km/h 84 % 0.00 in /  0 mm 343.00 W/m2
11:09 54.1 °F /  12.3 °C 49.4 °F /  9.7 °C 30.08 in /  1018.5 hPa SSE 9.0 mph /  14.5 km/h 14.0 mph /  22.5 km/h 84 % 0.00 in /  0 mm 174.00 W/m2
11:14 54.1 °F /  12.3 °C 49.4 °F /  9.7 °C 30.08 in /  1018.5 hPa SSE 7.0 mph /  11.3 km/h 11.0 mph /  17.7 km/h 84 % 0.00 in /  0 mm 144.00 W/m2
Delerius-Weather
Compliments of Weather Underground - 1.5 mb

Data updates at regular intervals.